Time;durP1;ratioP1;P1;durP2;ratioP2;P2;SDS_P1;SDS_P2;PMS_P1;PMS_P2;Temp;Humidity;BMP_temperature;BMP_pressure;BME280_temperature;BME280_humidity;BME280_pressure;Samples;Min_cycle;Max_cycle;Signal;HPM_P1;HPM_P2
2021/06/22 00:00:23;;;;;;;11.77;4.82;;;12.70;99.90;;;;;;5033790;28;20055;-71
2021/06/22 00:02:49;;;;;;;11.80;5.63;;;12.70;99.90;;;;;;5033950;28;20486;-71
2021/06/22 00:05:19;;;;;;;10.13;4.72;;;12.70;99.90;;;;;;5033869;28;20401;-71
2021/06/22 00:07:49;;;;;;;12.30;5.43;;;12.80;99.90;;;;;;5033916;28;20040;-71
2021/06/22 00:10:16;;;;;;;11.55;5.63;;;12.80;99.90;;;;;;5033432;28;20401;-71
2021/06/22 00:12:43;;;;;;;10.93;5.30;;;12.70;99.90;;;;;;5033704;28;20053;-71
2021/06/22 00:15:11;;;;;;;10.98;4.68;;;12.80;99.90;;;;;;5034346;28;20041;-71
2021/06/22 00:17:38;;;;;;;17.02;5.00;;;12.80;99.90;;;;;;5033832;28;20060;-71
2021/06/22 00:20:05;;;;;;;10.07;5.40;;;12.80;99.90;;;;;;5033391;28;20049;-71
2021/06/22 00:22:31;;;;;;;12.07;5.93;;;12.90;99.90;;;;;;5033646;28;20043;-71
2021/06/22 00:24:56;;;;;;;12.25;5.35;;;12.90;99.90;;;;;;5034006;28;20112;-71
2021/06/22 00:27:22;;;;;;;15.95;4.80;;;12.90;99.90;;;;;;5033601;28;20053;-71
2021/06/22 00:29:50;;;;;;;7.65;5.70;;;12.90;99.90;;;;;;5033298;28;20046;-72
2021/06/22 00:32:17;;;;;;;10.68;4.65;;;12.90;99.90;;;;;;5032278;28;20053;-72
2021/06/22 00:34:45;;;;;;;15.15;5.63;;;12.90;99.90;;;;;;5033757;28;20051;-71
2021/06/22 00:37:15;;;;;;;12.10;4.82;;;12.90;99.90;;;;;;5033482;28;20536;-72
2021/06/22 00:39:42;;;;;;;9.13;4.82;;;12.90;99.90;;;;;;5033179;28;20370;-72
2021/06/22 00:42:08;;;;;;;11.27;5.65;;;12.90;99.90;;;;;;5033163;28;20046;-72
2021/06/22 00:44:44;;;;;;;13.75;4.55;;;12.90;99.90;;;;;;5032970;28;20428;-72
2021/06/22 00:47:10;;;;;;;14.95;4.72;;;12.90;99.90;;;;;;5033290;28;20033;-72
2021/06/22 00:49:36;;;;;;;12.82;5.43;;;12.90;99.90;;;;;;5033177;28;20067;-71
2021/06/22 00:52:02;;;;;;;8.02;3.85;;;12.90;99.90;;;;;;5033174;28;20034;-72
2021/06/22 00:54:27;;;;;;;6.93;3.38;;;12.90;99.90;;;;;;5033252;28;20042;-72
2021/06/22 00:56:53;;;;;;;10.60;4.03;;;12.90;99.90;;;;;;5033271;28;20120;-71
2021/06/22 00:59:19;;;;;;;12.05;3.88;;;12.90;99.90;;;;;;5031731;28;20045;-71
2021/06/22 01:01:45;;;;;;;10.27;4.50;;;12.90;99.90;;;;;;5033031;28;20111;-72
2021/06/22 01:04:10;;;;;;;11.82;5.65;;;12.90;99.90;;;;;;5033100;28;20038;-71
2021/06/22 01:06:36;;;;;;;12.90;4.50;;;12.90;99.90;;;;;;5033221;28;20041;-71
2021/06/22 01:09:05;;;;;;;16.20;4.20;;;12.90;99.90;;;;;;5032827;28;20041;-71
2021/06/22 01:11:31;;;;;;;10.20;4.30;;;12.90;99.90;;;;;;5033260;28;20037;-71
2021/06/22 01:13:56;;;;;;;12.13;5.45;;;12.90;99.90;;;;;;5033015;28;20037;-71
2021/06/22 01:16:24;;;;;;;13.45;5.78;;;12.90;99.90;;;;;;5033171;28;20383;-71
2021/06/22 01:18:58;;;;;;;13.00;5.20;;;12.90;99.90;;;;;;5032674;28;20445;-72
2021/06/22 01:21:23;;;;;;;;;;;12.90;99.90;;;;;;5033669;28;20505;-71
2021/06/22 01:23:50;;;;;;;10.43;5.10;;;12.80;99.90;;;;;;5033002;28;19948;-72
2021/06/22 01:26:15;;;;;;;12.85;6.07;;;12.80;99.90;;;;;;5031786;28;20266;-72
2021/06/22 01:28:42;;;;;;;14.45;5.72;;;12.90;99.90;;;;;;5032594;28;20030;-72
2021/06/22 01:31:11;;;;;;;13.32;7.25;;;12.80;99.90;;;;;;5032800;28;20037;-71
2021/06/22 01:33:38;;;;;;;15.13;6.72;;;12.90;99.90;;;;;;5033326;28;20041;-71
2021/06/22 01:36:04;;;;;;;12.35;6.43;;;12.80;99.90;;;;;;5033463;28;20053;-71
2021/06/22 01:38:30;;;;;;;9.35;6.60;;;12.80;99.90;;;;;;5032713;28;20037;-72
2021/06/22 01:40:55;;;;;;;20.27;7.00;;;12.70;99.90;;;;;;5032858;28;20118;-71
2021/06/22 01:43:24;;;;;;;14.40;6.88;;;12.70;99.90;;;;;;5033029;28;20044;-71
2021/06/22 01:45:51;;;;;;;14.05;7.85;;;12.70;99.90;;;;;;5031649;28;20044;-71
2021/06/22 01:48:16;;;;;;;15.35;7.63;;;12.70;99.90;;;;;;5033125;28;20052;-71
2021/06/22 01:50:44;;;;;;;12.18;7.78;;;12.60;99.90;;;;;;5032483;28;20072;-71
2021/06/22 01:53:10;;;;;;;15.50;8.82;;;12.60;99.90;;;;;;5032756;28;20405;-71
2021/06/22 01:55:37;;;;;;;12.15;8.60;;;12.60;99.90;;;;;;5035871;28;20079;-71
2021/06/22 01:58:05;;;;;;;21.05;10.25;;;12.50;99.90;;;;;;5036572;28;20098;-72
2021/06/22 02:00:31;;;;;;;17.08;9.82;;;12.50;99.90;;;;;;5035892;28;20033;-71
2021/06/22 02:02:57;;;;;;;20.92;10.45;;;12.40;99.90;;;;;;5036177;28;20049;-71
2021/06/22 02:05:23;;;;;;;20.65;12.13;;;12.40;99.90;;;;;;5036459;28;20041;-71
2021/06/22 02:07:48;;;;;;;22.73;11.63;;;12.40;99.90;;;;;;5036233;28;20458;-71
2021/06/22 02:10:14;;;;;;;22.25;12.43;;;12.30;99.90;;;;;;5035766;28;20057;-71
2021/06/22 02:12:40;;;;;;;26.15;13.02;;;12.30;99.90;;;;;;5035923;28;20073;-71
2021/06/22 02:15:09;;;;;;;20.02;12.63;;;12.30;99.90;;;;;;5035982;28;20382;-71
2021/06/22 02:17:35;;;;;;;25.48;11.75;;;12.30;99.90;;;;;;5036336;28;20120;-72
2021/06/22 02:20:02;;;;;;;22.48;12.65;;;12.30;99.90;;;;;;5035794;28;20037;-71
2021/06/22 02:22:28;;;;;;;21.98;12.88;;;12.20;99.90;;;;;;5035788;28;20033;-71
2021/06/22 02:24:54;;;;;;;19.13;12.75;;;12.20;99.90;;;;;;5036391;28;20047;-71
2021/06/22 02:27:28;;;;;;;26.75;14.30;;;12.20;99.90;;;;;;5036329;28;20076;-71
2021/06/22 02:29:54;;;;;;;28.92;14.25;;;12.20;99.90;;;;;;5035318;28;20480;-71
2021/06/22 02:32:20;;;;;;;21.58;13.98;;;12.20;99.90;;;;;;5035502;28;20413;-71
2021/06/22 02:34:46;;;;;;;22.80;13.77;;;12.20;99.90;;;;;;5035983;28;20045;-71
2021/06/22 02:37:12;;;;;;;26.15;14.02;;;12.10;99.90;;;;;;5035591;28;20038;-71
2021/06/22 02:39:38;;;;;;;17.65;13.63;;;12.10;99.90;;;;;;5035240;28;20040;-71
2021/06/22 02:42:04;;;;;;;29.25;14.75;;;12.10;99.90;;;;;;5035346;28;20037;-71
2021/06/22 02:44:30;;;;;;;25.73;13.52;;;12.10;99.90;;;;;;5035446;28;20159;-71
2021/06/22 02:46:56;;;;;;;29.75;14.60;;;12.10;99.90;;;;;;5035573;28;20501;-71
2021/06/22 02:49:22;;;;;;;18.85;12.85;;;12.00;99.90;;;;;;5035126;28;20064;-71
2021/06/22 02:51:47;;;;;;;23.63;14.30;;;12.00;99.90;;;;;;5035746;28;20466;-71
2021/06/22 02:54:13;;;;;;;28.85;13.73;;;12.00;99.90;;;;;;5035545;28;20037;-71
2021/06/22 02:56:39;;;;;;;24.23;13.27;;;12.00;99.90;;;;;;5035245;28;20045;-71
2021/06/22 02:59:05;;;;;;;31.23;16.45;;;12.00;99.90;;;;;;5034832;28;20038;-69
2021/06/22 03:01:30;;;;;;;29.40;14.95;;;11.90;99.90;;;;;;5034982;28;20132;-70
2021/06/22 03:03:56;;;;;;;23.35;14.07;;;11.90;99.90;;;;;;5035173;28;20045;-70
2021/06/22 03:06:22;;;;;;;22.60;14.13;;;11.90;99.90;;;;;;5034422;28;20044;-70
2021/06/22 03:08:47;;;;;;;23.88;13.82;;;11.90;99.90;;;;;;5034982;28;20052;-70
2021/06/22 03:11:13;;;;;;;22.50;13.43;;;11.80;99.90;;;;;;5035031;28;20759;-70
2021/06/22 03:13:39;;;;;;;20.10;12.60;;;11.80;99.90;;;;;;5034901;28;20042;-70
2021/06/22 03:16:05;;;;;;;20.13;12.55;;;11.80;99.90;;;;;;5034844;28;20116;-70
2021/06/22 03:18:30;;;;;;;23.88;13.27;;;11.80;99.90;;;;;;5034790;28;20046;-71
2021/06/22 03:20:56;;;;;;;23.77;13.73;;;11.80;99.90;;;;;;5034977;28;20045;-70
2021/06/22 03:23:22;;;;;;;23.65;14.68;;;11.90;99.90;;;;;;5034733;28;20478;-70
2021/06/22 03:25:47;;;;;;;22.38;13.25;;;11.80;99.90;;;;;;5034956;28;20400;-70
2021/06/22 03:28:13;;;;;;;19.02;13.45;;;11.80;99.90;;;;;;5035051;28;20390;-70
2021/06/22 03:30:41;;;;;;;22.75;13.20;;;11.80;99.90;;;;;;5034513;28;20573;-70
2021/06/22 03:33:08;;;;;;;21.38;13.48;;;11.80;99.90;;;;;;5034753;28;20050;-70
2021/06/22 03:35:34;;;;;;;24.02;13.95;;;11.80;99.90;;;;;;5034459;28;20052;-70
2021/06/22 03:38:00;;;;;;;22.98;14.02;;;11.80;99.90;;;;;;5034497;28;20398;-70
2021/06/22 03:40:26;;;;;;;23.95;13.45;;;11.80;99.90;;;;;;5032840;28;20044;-70
2021/06/22 03:42:52;;;;;;;24.23;13.60;;;11.80;99.90;;;;;;5034256;28;20051;-70
2021/06/22 03:45:18;;;;;;;19.25;13.55;;;11.80;99.90;;;;;;5034260;28;20034;-70
2021/06/22 03:47:44;;;;;;;24.48;12.90;;;11.80;99.90;;;;;;5034374;28;20065;-70
2021/06/22 03:50:10;;;;;;;23.63;13.70;;;11.80;99.90;;;;;;5034288;28;20033;-70
2021/06/22 03:52:36;;;;;;;22.20;13.82;;;11.80;99.90;;;;;;5034100;28;20414;-70
2021/06/22 03:55:25;;;;;;;24.25;14.55;;;11.90;99.90;;;;;;5034141;28;20037;-70
2021/06/22 03:57:51;;;;;;;24.00;14.65;;;11.90;99.90;;;;;;5034085;28;20037;-70
2021/06/22 04:00:17;;;;;;;20.60;13.68;;;11.90;99.90;;;;;;5033928;28;20107;-70
2021/06/22 04:02:43;;;;;;;23.02;14.05;;;12.00;99.90;;;;;;5034290;28;20049;-70
2021/06/22 04:05:09;;;;;;;22.67;14.02;;;12.00;99.90;;;;;;5034070;28;20044;-70
2021/06/22 04:07:35;;;;;;;22.77;14.38;;;11.90;99.90;;;;;;5033896;28;20048;-71
2021/06/22 04:10:01;;;;;;;22.35;14.73;;;12.00;99.90;;;;;;5033585;28;20064;-71
2021/06/22 04:12:27;;;;;;;21.10;13.60;;;12.00;99.90;;;;;;5033753;28;20481;-71
2021/06/22 04:14:52;;;;;;;30.45;15.40;;;12.00;99.90;;;;;;5034142;28;20050;-71
2021/06/22 04:17:18;;;;;;;21.88;14.90;;;12.00;99.90;;;;;;5034351;28;20091;-71
2021/06/22 04:19:44;;;;;;;22.02;14.88;;;12.00;99.90;;;;;;5033293;28;20112;-71
2021/06/22 04:22:10;;;;;;;21.70;15.25;;;12.00;99.90;;;;;;5033554;28;20041;-71
2021/06/22 04:24:35;;;;;;;26.85;14.82;;;12.00;99.90;;;;;;5033832;28;20081;-71
2021/06/22 04:27:01;;;;;;;24.02;14.52;;;12.10;99.90;;;;;;5033995;28;20037;-71
2021/06/22 04:29:27;;;;;;;25.75;14.77;;;12.10;99.90;;;;;;5032163;28;20033;-71
2021/06/22 04:31:58;;;;;;;23.00;13.85;;;12.20;99.90;;;;;;5032313;28;20379;-71
2021/06/22 04:34:25;;;;;;;19.30;13.93;;;12.20;99.90;;;;;;5033358;28;20041;-71
2021/06/22 04:36:51;;;;;;;19.55;14.00;;;12.30;99.90;;;;;;5033468;28;20037;-71
2021/06/22 04:39:17;;;;;;;21.13;14.05;;;12.30;99.90;;;;;;5033066;28;20045;-71
2021/06/22 04:41:45;;;;;;;20.48;13.70;;;12.30;99.90;;;;;;5033792;28;20033;-71
2021/06/22 04:44:11;;;;;;;23.92;15.23;;;12.30;99.90;;;;;;5033776;28;20049;-71
2021/06/22 04:46:37;;;;;;;19.85;13.73;;;12.30;99.90;;;;;;5033289;28;20037;-71
2021/06/22 04:49:03;;;;;;;17.88;13.35;;;12.30;99.90;;;;;;5032958;28;20041;-71
2021/06/22 04:51:29;;;;;;;19.98;15.55;;;12.30;99.90;;;;;;5033573;28;20041;-71
2021/06/22 04:53:54;;;;;;;22.83;15.30;;;12.40;99.90;;;;;;5033086;28;20044;-71
2021/06/22 04:56:22;;;;;;;20.85;15.18;;;12.40;99.90;;;;;;5032265;28;20037;-71
2021/06/22 04:58:52;;;;;;;25.92;15.98;;;12.60;99.90;;;;;;5032868;28;20497;-71
2021/06/22 05:01:18;;;;;;;24.67;14.77;;;12.50;99.90;;;;;;5033301;28;20061;-71
2021/06/22 05:03:44;;;;;;;20.42;14.63;;;12.60;99.90;;;;;;5033411;28;20547;-71
2021/06/22 05:06:11;;;;;;;25.55;14.75;;;12.60;99.90;;;;;;5033269;28;20064;-71
2021/06/22 05:08:38;;;;;;;24.35;13.57;;;12.70;99.90;;;;;;5033116;28;20045;-71
2021/06/22 05:11:05;;;;;;;22.08;13.63;;;12.80;99.90;;;;;;5033326;28;20120;-71
2021/06/22 05:13:34;;;;;;;28.58;15.05;;;13.00;99.90;;;;;;5031862;28;20060;-71
2021/06/22 05:16:00;;;;;;;27.05;14.57;;;13.30;99.90;;;;;;5033004;28;20110;-70
2021/06/22 05:18:27;;;;;;;17.27;13.55;;;13.60;99.90;;;;;;5033063;28;20041;-71
2021/06/22 05:20:52;;;;;;;23.30;14.32;;;13.90;99.90;;;;;;5032982;28;20037;-71
2021/06/22 05:23:18;;;;;;;21.08;14.50;;;14.10;99.90;;;;;;5032893;28;20103;-70
2021/06/22 05:25:44;;;;;;;22.63;13.50;;;14.40;99.90;;;;;;5033162;28;20034;-71
2021/06/22 05:28:12;;;;;;;19.75;12.65;;;14.50;99.90;;;;;;5033087;28;20047;-70
2021/06/22 05:30:38;;;;;;;16.65;12.52;;;14.70;99.90;;;;;;5035936;28;20402;-71
2021/06/22 05:33:04;;;;;;;21.02;11.55;;;14.90;99.90;;;;;;5036628;28;20037;-70
2021/06/22 05:35:31;;;;;;;15.60;9.98;;;15.10;99.90;;;;;;5036533;28;20080;-70
2021/06/22 05:37:57;;;;;;;20.35;11.00;;;15.30;99.90;;;;;;5036780;28;20084;-71
2021/06/22 05:40:23;;;;;;;18.50;10.43;;;15.50;99.90;;;;;;5036043;28;20041;-71
2021/06/22 05:42:48;;;;;;;18.23;10.25;;;15.70;99.90;;;;;;5037046;28;20052;-70
2021/06/22 05:45:15;;;;;;;15.60;10.57;;;15.80;99.80;;;;;;5036613;28;20049;-71
2021/06/22 05:47:41;;;;;;;12.05;8.90;;;16.00;99.20;;;;;;5036673;28;20107;-70
2021/06/22 05:50:07;;;;;;;16.63;9.70;;;16.20;98.70;;;;;;5036108;28;20379;-70
2021/06/22 05:52:34;;;;;;;14.13;9.20;;;16.30;98.20;;;;;;5036564;28;20037;-71
2021/06/22 05:54:59;;;;;;;10.82;8.50;;;16.40;97.70;;;;;;5036706;28;20069;-70
2021/06/22 05:57:25;;;;;;;14.88;9.13;;;16.40;97.30;;;;;;5036230;28;20033;-70
2021/06/22 05:59:51;;;;;;;13.30;9.25;;;16.80;97.60;;;;;;5035849;28;20042;-71
2021/06/22 06:02:17;;;;;;;13.20;8.75;;;17.00;97.40;;;;;;5036181;28;20045;-70
2021/06/22 06:04:43;;;;;;;15.13;8.27;;;17.00;97.10;;;;;;5035988;28;20401;-70
2021/06/22 06:07:08;;;;;;;12.10;7.93;;;17.10;96.30;;;;;;5036226;28;20056;-70
2021/06/22 06:09:34;;;;;;;13.43;7.53;;;17.10;96.30;;;;;;5035833;28;20126;-70
2021/06/22 06:12:00;;;;;;;15.73;7.38;;;17.00;96.70;;;;;;5036476;28;20040;-70
2021/06/22 06:14:26;;;;;;;12.80;7.57;;;16.60;96.30;;;;;;5035973;28;20048;-70
2021/06/22 06:16:52;;;;;;;17.77;6.63;;;17.00;96.90;;;;;;5035956;28;20124;-70
2021/06/22 06:19:17;;;;;;;13.25;5.97;;;17.00;95.50;;;;;;5035796;28;20500;-70
2021/06/22 06:21:44;;;;;;;9.13;5.88;;;17.30;96.20;;;;;;5035803;28;20041;-70
2021/06/22 06:24:10;;;;;;;14.75;6.53;;;17.10;95.60;;;;;;5035872;28;20485;-70
2021/06/22 06:26:50;;;;;;;12.60;6.22;;;17.50;95.60;;;;;;5035813;28;20436;-70
2021/06/22 06:32:11;;;;;;;10.43;5.22;;;17.80;94.60;;;;;;4998893;28;20617;-70
2021/06/22 06:34:37;;;;;;;12.32;5.38;;;18.10;94.80;;;;;;5035512;28;20077;-70
2021/06/22 06:37:04;;;;;;;15.85;5.97;;;18.50;94.60;;;;;;5035543;28;20042;-70
2021/06/22 06:39:29;;;;;;;10.98;4.50;;;18.60;94.00;;;;;;5035114;28;20040;-70
2021/06/22 06:41:55;;;;;;;12.68;4.97;;;18.70;93.10;;;;;;5034128;28;20486;-70
2021/06/22 06:44:21;;;;;;;7.93;3.75;;;18.60;92.70;;;;;;5035787;28;20477;-70
2021/06/22 06:46:47;;;;;;;9.93;4.80;;;18.50;91.60;;;;;;5035392;28;20548;-70
2021/06/22 06:49:12;;;;;;;14.18;5.40;;;18.60;91.50;;;;;;5035186;28;20061;-70
2021/06/22 06:51:38;;;;;;;9.20;4.47;;;18.80;92.10;;;;;;5035283;28;20482;-70
2021/06/22 06:54:04;;;;;;;10.90;4.38;;;18.70;91.70;;;;;;5035082;28;20034;-70
2021/06/22 06:56:30;;;;;;;9.20;4.70;;;18.60;91.70;;;;;;5035717;28;20041;-70
2021/06/22 06:58:56;;;;;;;10.80;4.97;;;19.20;92.30;;;;;;5033627;28;20045;-70
2021/06/22 07:01:21;;;;;;;11.80;5.50;;;19.20;91.40;;;;;;5034243;28;20045;-69
2021/06/22 07:03:47;;;;;;;13.23;5.05;;;18.60;91.20;;;;;;5035262;28;20038;-69
2021/06/22 07:06:14;;;;;;;16.40;5.18;;;18.50;92.10;;;;;;5035147;28;20037;-69
2021/06/22 07:08:40;;;;;;;10.75;4.35;;;18.00;92.40;;;;;;5035135;28;20091;-70
2021/06/22 07:11:06;;;;;;;11.07;4.10;;;18.00;93.70;;;;;;5034750;28;20044;-69
2021/06/22 07:13:32;;;;;;;8.10;4.40;;;17.90;93.80;;;;;;5035065;28;20041;-69
2021/06/22 07:16:02;;;;;;;7.78;5.00;;;18.10;93.20;;;;;;5034812;28;20509;-70
2021/06/22 07:18:29;;;;;;;13.43;4.20;;;18.60;93.30;;;;;;5034854;28;20042;-70
2021/06/22 07:20:59;;;;;;;13.68;4.75;;;18.60;92.80;;;;;;5034548;28;20041;-69
2021/06/22 07:23:26;;;;;;;9.80;3.67;;;18.30;91.40;;;;;;5034628;28;20503;-69
2021/06/22 07:25:53;;;;;;;15.85;4.85;;;18.00;92.80;;;;;;5034656;28;20069;-69
2021/06/22 07:28:19;;;;;;;13.00;4.40;;;18.20;93.00;;;;;;5034824;28;20085;-69
2021/06/22 07:30:44;;;;;;;9.50;3.75;;;18.30;92.70;;;;;;5034134;28;20068;-69
2021/06/22 07:33:11;;;;;;;12.02;4.80;;;18.50;92.10;;;;;;5034384;28;20080;-69
2021/06/22 07:35:37;;;;;;;11.35;5.00;;;18.20;91.10;;;;;;5034457;28;20078;-69
2021/06/22 07:38:04;;;;;;;10.77;3.78;;;18.20;92.10;;;;;;5034541;28;20038;-69
2021/06/22 07:40:50;;;;;;;13.05;4.75;;;18.10;91.90;;;;;;5033245;28;20046;-69
2021/06/22 07:43:16;;;;;;;9.57;3.78;;;17.40;92.00;;;;;;5034583;28;20045;-68
2021/06/22 07:45:42;;;;;;;14.10;4.20;;;17.00;92.50;;;;;;5034219;28;20072;-70
2021/06/22 07:48:09;;;;;;;8.38;4.00;;;17.10;92.10;;;;;;5034484;28;20493;-69
2021/06/22 07:50:35;;;;;;;11.32;4.30;;;17.00;91.30;;;;;;5033860;28;20462;-69
2021/06/22 07:53:02;;;;;;;10.25;3.90;;;16.80;92.20;;;;;;5033601;28;20116;-69
2021/06/22 07:55:31;;;;;;;8.35;4.47;;;16.70;92.60;;;;;;5034077;28;20124;-69
2021/06/22 07:57:58;;;;;;;11.75;3.42;;;16.70;93.30;;;;;;5034118;28;20049;-69
2021/06/22 08:00:34;;;;;;;11.98;4.07;;;16.30;93.40;;;;;;5033719;28;20057;-69
2021/06/22 08:03:01;;;;;;;11.15;4.05;;;16.20;94.30;;;;;;5034036;28;20041;-69
2021/06/22 08:05:26;;;;;;;7.65;3.13;;;16.20;94.40;;;;;;5033943;28;20041;-70
2021/06/22 08:07:52;;;;;;;8.07;3.63;;;16.10;94.30;;;;;;5034155;28;20091;-69
2021/06/22 08:10:18;;;;;;;13.48;3.88;;;16.30;94.40;;;;;;5033574;28;20128;-70
2021/06/22 08:12:44;;;;;;;5.85;3.33;;;16.10;93.50;;;;;;5033872;28;20065;-68
2021/06/22 08:15:10;;;;;;;7.90;3.80;;;16.20;93.20;;;;;;5033721;28;20037;-69
2021/06/22 08:17:36;;;;;;;9.43;3.53;;;16.40;92.90;;;;;;5033892;28;20075;-70
2021/06/22 08:20:04;;;;;;;9.18;3.20;;;16.70;92.10;;;;;;5033255;28;20497;-70
2021/06/22 08:22:30;;;;;;;11.93;3.40;;;16.80;92.30;;;;;;5033725;28;20064;-70
2021/06/22 08:24:56;;;;;;;9.40;3.58;;;16.90;92.00;;;;;;5034131;28;20045;-69
2021/06/22 08:27:21;;;;;;;11.13;3.72;;;16.80;90.50;;;;;;5032764;28;20206;-69
2021/06/22 08:29:47;;;;;;;8.65;3.85;;;16.60;90.30;;;;;;5033117;28;20056;-69
2021/06/22 08:32:14;;;;;;;9.43;3.95;;;16.50;91.00;;;;;;5033599;28;20052;-70
2021/06/22 08:34:40;;;;;;;8.00;4.03;;;16.20;92.30;;;;;;5032380;28;20136;-69
2021/06/22 08:37:05;;;;;;;8.75;3.20;;;16.10;92.60;;;;;;5033477;28;20120;-69
2021/06/22 08:39:34;;;;;;;8.30;3.47;;;15.90;92.00;;;;;;5033191;28;20048;-70
2021/06/22 08:42:02;;;;;;;9.93;3.88;;;15.90;92.80;;;;;;5033487;28;20037;-68
2021/06/22 08:44:29;;;;;;;10.02;3.08;;;16.00;93.30;;;;;;5033456;28;20049;-69
2021/06/22 08:46:56;;;;;;;6.70;3.10;;;16.10;93.10;;;;;;5033297;28;20099;-69
2021/06/22 08:49:23;;;;;;;13.05;3.08;;;16.20;92.70;;;;;;5033453;28;20485;-69
2021/06/22 08:51:50;;;;;;;8.10;3.40;;;16.30;92.40;;;;;;5033456;28;20038;-70
2021/06/22 08:54:16;;;;;;;5.03;2.78;;;16.70;91.10;;;;;;5032050;28;20041;-69
2021/06/22 08:56:41;;;;;;;10.27;3.20;;;16.70;90.80;;;;;;5033164;28;20048;-69
2021/06/22 08:59:07;;;;;;;6.50;2.92;;;17.00;90.00;;;;;;5032814;28;20481;-70
2021/06/22 09:01:33;;;;;;;7.43;3.17;;;17.00;89.60;;;;;;5033128;28;20421;-69
2021/06/22 09:03:58;;;;;;;7.57;2.92;;;16.80;90.00;;;;;;5034129;28;20038;-70
2021/06/22 09:06:26;;;;;;;9.82;3.53;;;16.60;90.40;;;;;;5037268;28;20045;-70
2021/06/22 09:08:53;;;;;;;8.13;3.38;;;16.70;90.20;;;;;;5037047;28;20040;-69
2021/06/22 09:11:19;;;;;;;9.75;2.92;;;16.70;90.10;;;;;;5037258;28;20034;-69
2021/06/22 09:14:02;;;;;;;8.70;3.17;;;16.50;90.30;;;;;;5036981;28;20041;-70
2021/06/22 09:16:29;;;;;;;7.20;2.80;;;16.90;89.80;;;;;;5037096;28;20038;-69
2021/06/22 09:19:10;;;;;;;7.07;2.95;;;17.40;88.20;;;;;;5037008;28;20038;-70
2021/06/22 09:21:46;;;;;;;7.22;2.90;;;18.10;85.20;;;;;;5035786;28;20042;-70
2021/06/22 09:24:20;;;;;;;10.32;2.80;;;18.20;87.10;;;;;;5037205;28;20053;-70
2021/06/22 09:26:47;;;;;;;10.23;3.58;;;17.80;87.40;;;;;;5037205;28;20045;-69
2021/06/22 09:29:16;;;;;;;6.72;3.13;;;17.60;88.60;;;;;;5036538;28;20091;-70
2021/06/22 09:31:52;;;;;;;13.15;3.92;;;17.30;89.60;;;;;;5036621;28;20405;-69
2021/06/22 09:34:19;;;;;;;9.70;2.85;;;17.20;91.20;;;;;;5036947;28;20516;-69
2021/06/22 09:36:53;;;;;;;10.95;3.83;;;16.70;90.20;;;;;;5036649;28;20037;-69
2021/06/22 09:39:21;;;;;;;7.20;2.90;;;16.60;89.50;;;;;;5036319;28;20441;-69
2021/06/22 09:41:49;;;;;;;8.43;4.22;;;16.60;90.30;;;;;;5036611;28;20049;-69
2021/06/22 09:44:17;;;;;;;6.03;3.25;;;16.90;90.60;;;;;;5036653;28;20048;-69
2021/06/22 09:46:46;;;;;;;9.23;4.22;;;17.00;90.20;;;;;;5036538;28;20468;-69
2021/06/22 09:49:34;;;;;;;10.45;3.58;;;17.40;88.20;;;;;;5036325;28;20045;-70
2021/06/22 09:52:09;;;;;;;7.28;3.22;;;18.00;87.20;;;;;;5036512;28;20033;-69
2021/06/22 09:54:51;;;;;;;9.93;3.75;;;18.30;84.80;;;;;;5036904;28;20045;-70
2021/06/22 09:57:18;;;;;;;8.43;3.78;;;18.70;83.80;;;;;;5036289;28;20033;-70
2021/06/22 09:59:58;;;;;;;8.05;4.00;;;18.80;85.00;;;;;;5035913;28;20167;-69
2021/06/22 10:02:26;;;;;;;10.20;3.97;;;18.80;81.50;;;;;;5036794;28;20042;-69
2021/06/22 10:04:58;;;;;;;5.45;3.30;;;18.60;82.40;;;;;;5036349;28;20084;-69
2021/06/22 10:07:28;;;;;;;11.20;3.83;;;19.00;79.90;;;;;;5036179;28;20486;-71
2021/06/22 10:09:56;;;;;;;7.07;3.30;;;18.90;78.50;;;;;;5035974;28;20037;-70
2021/06/22 10:12:25;;;;;;;12.63;3.95;;;18.50;79.90;;;;;;5035917;28;20038;-69
2021/06/22 10:14:53;;;;;;;8.35;4.53;;;17.70;84.50;;;;;;5035472;28;20045;-70
2021/06/22 10:17:25;;;;;;;10.27;4.50;;;17.70;84.90;;;;;;5036184;28;20033;-70
2021/06/22 10:19:53;;;;;;;8.47;3.63;;;17.50;88.60;;;;;;5035786;28;20552;-69
2021/06/22 10:22:22;;;;;;;10.43;3.88;;;17.10;89.60;;;;;;5035776;28;20276;-69
2021/06/22 10:24:48;;;;;;;12.20;4.40;;;17.20;90.80;;;;;;5035999;28;20136;-69
2021/06/22 10:27:19;;;;;;;13.25;5.00;;;17.20;91.30;;;;;;5035849;28;20065;-69
2021/06/22 10:29:50;;;;;;;9.23;4.22;;;17.00;92.10;;;;;;5035305;28;20040;-69
2021/06/22 10:32:17;;;;;;;10.63;4.78;;;16.60;91.30;;;;;;5035696;28;20038;-69
2021/06/22 10:34:50;;;;;;;10.98;4.63;;;16.60;92.60;;;;;;5035418;28;20041;-69
2021/06/22 10:37:33;;;;;;;13.80;4.45;;;16.40;91.00;;;;;;5034921;28;20049;-70
2021/06/22 10:40:06;;;;;;;8.60;3.80;;;16.40;91.50;;;;;;5035663;28;20120;-70
2021/06/22 10:42:41;;;;;;;12.48;4.43;;;16.20;91.70;;;;;;5035817;28;20041;-70
2021/06/22 10:45:07;;;;;;;8.68;5.05;;;16.10;91.10;;;;;;5035941;28;20044;-69
2021/06/22 10:47:36;;;;;;;11.13;4.70;;;16.00;91.30;;;;;;5034208;28;20042;-70
2021/06/22 10:50:29;;;;;;;9.80;4.68;;;16.00;91.80;;;;;;5035268;28;20041;-70
2021/06/22 10:53:03;;;;;;;13.63;4.47;;;16.30;91.00;;;;;;5035287;28;20042;-70
2021/06/22 10:55:33;;;;;;;10.30;5.15;;;16.30;91.10;;;;;;5035719;28;20482;-71
2021/06/22 10:58:02;;;;;;;21.05;5.70;;;16.50;90.80;;;;;;5035643;28;20038;-71
2021/06/22 11:00:30;;;;;;;13.80;4.60;;;16.50;90.10;;;;;;5034752;28;20045;-71
2021/06/22 11:02:59;;;;;;;12.25;4.25;;;16.50;90.40;;;;;;5035367;28;20116;-70
2021/06/22 11:05:26;;;;;;;9.68;4.55;;;16.70;89.10;;;;;;5035032;28;20038;-71
2021/06/22 11:08:10;;;;;;;12.10;4.28;;;16.60;89.20;;;;;;5035630;28;20048;-70
2021/06/22 11:10:37;;;;;;;11.27;4.28;;;16.70;90.00;;;;;;5034479;28;20091;-71
2021/06/22 11:13:04;;;;;;;8.68;4.93;;;16.70;88.70;;;;;;5035131;28;20095;-70
2021/06/22 11:15:51;;;;;;;15.60;5.30;;;16.70;88.00;;;;;;5033711;28;20041;-71
2021/06/22 11:18:20;;;;;;;7.97;4.22;;;16.60;88.40;;;;;;5035394;28;20037;-71
2021/06/22 11:20:58;;;;;;;10.18;4.53;;;16.70;88.10;;;;;;5034306;28;20037;-71
2021/06/22 11:23:24;;;;;;;9.93;4.07;;;16.60;87.80;;;;;;5034897;28;20044;-70
2021/06/22 11:26:00;;;;;;;14.68;4.65;;;16.30;89.60;;;;;;5034659;28;20033;-69
2021/06/22 11:28:26;;;;;;;14.10;4.70;;;16.50;90.20;;;;;;5034131;28;20490;-70
2021/06/22 11:30:58;;;;;;;10.45;4.78;;;16.40;90.30;;;;;;5034961;28;20037;-70
2021/06/22 11:33:36;;;;;;;12.15;4.80;;;16.40;90.30;;;;;;5034503;28;20537;-69
2021/06/22 11:36:20;;;;;;;12.80;5.40;;;16.60;91.60;;;;;;5034425;28;20507;-70
2021/06/22 11:39:10;;;;;;;12.80;5.85;;;16.70;90.50;;;;;;5034320;28;20037;-69
2021/06/22 11:41:36;;;;;;;10.18;5.57;;;16.60;89.70;;;;;;5034790;28;20041;-70
2021/06/22 11:44:25;;;;;;;10.18;5.35;;;16.70;88.00;;;;;;5034381;28;20482;-70
2021/06/22 11:46:50;;;;;;;9.18;5.97;;;16.90;87.40;;;;;;5033045;28;20044;-69
2021/06/22 11:49:18;;;;;;;13.02;5.78;;;16.90;87.20;;;;;;5031817;28;20041;-69
2021/06/22 11:51:46;;;;;;;16.33;5.43;;;16.90;86.90;;;;;;5034124;28;20048;-69
2021/06/22 11:54:17;;;;;;;13.00;5.35;;;17.20;86.80;;;;;;5033985;28;20042;-71
2021/06/22 11:56:46;;;;;;;11.40;6.20;;;17.10;84.80;;;;;;5033942;28;20095;-69
2021/06/22 11:59:13;;;;;;;11.13;5.57;;;17.10;84.60;;;;;;5033707;28;20033;-69
2021/06/22 12:01:46;;;;;;;8.85;5.38;;;17.40;86.70;;;;;;5033906;28;20037;-69
2021/06/22 12:04:11;;;;;;;11.20;6.15;;;17.10;84.10;;;;;;5033860;28;20045;-69
2021/06/22 12:06:37;;;;;;;10.02;5.97;;;17.00;84.70;;;;;;5033932;28;20440;-69
2021/06/22 12:09:21;;;;;;;10.27;6.47;;;17.00;85.80;;;;;;5033611;28;20482;-69
2021/06/22 12:11:47;;;;;;;10.75;5.60;;;17.10;85.80;;;;;;5034004;28;20042;-69
2021/06/22 12:14:14;;;;;;;10.68;5.53;;;17.30;85.30;;;;;;5032924;28;20069;-70
2021/06/22 12:16:44;;;;;;;8.63;5.40;;;17.40;89.10;;;;;;5033803;28;20555;-69
2021/06/22 12:19:15;;;;;;;9.23;5.07;;;17.60;88.90;;;;;;5033497;28;20485;-69
2021/06/22 12:21:49;;;;;;;9.13;5.32;;;17.80;87.40;;;;;;5033671;28;20072;-69
2021/06/22 12:24:15;;;;;;;8.05;4.72;;;17.70;84.40;;;;;;5033802;28;20116;-69
2021/06/22 12:26:43;;;;;;;30.92;12.10;;;18.00;83.90;;;;;;5033607;28;20486;-70
2021/06/22 12:29:20;;;;;;;11.23;6.25;;;17.90;83.20;;;;;;5033206;28;20167;-70
2021/06/22 12:31:55;;;;;;;11.30;4.95;;;17.90;82.40;;;;;;5033496;28;20041;-70
2021/06/22 12:34:23;;;;;;;26.48;11.52;;;17.70;82.90;;;;;;5033431;28;20433;-70
2021/06/22 12:36:49;;;;;;;11.32;4.72;;;17.70;83.40;;;;;;5034035;28;20098;-69
2021/06/22 12:39:16;;;;;;;9.25;5.78;;;17.90;85.60;;;;;;5033370;28;20041;-69
2021/06/22 12:41:43;;;;;;;10.38;6.22;;;17.70;80.00;;;;;;5033495;28;20041;-70